createdAt,value
2024-02-04T00:00:07.422Z,1.61
2024-02-04T00:03:15.025Z,1.62
2024-02-04T00:06:18.360Z,1.64
2024-02-04T00:09:21.195Z,1.70
2024-02-04T00:12:23.749Z,1.65
2024-02-04T00:15:30.099Z,1.67
2024-02-04T00:18:33.391Z,1.64
2024-02-04T00:21:36.056Z,1.61
2024-02-04T00:24:38.890Z,1.55
2024-02-04T00:27:41.567Z,1.43
2024-02-04T00:30:44.148Z,1.47
2024-02-04T00:33:46.901Z,1.43
2024-02-04T00:36:49.597Z,1.23
2024-02-04T00:39:52.534Z,1.24
2024-02-04T00:42:55.194Z,1.34
2024-02-04T00:45:58.123Z,1.29
2024-02-04T00:49:01.037Z,1.18
2024-02-04T00:52:04.034Z,0.95
2024-02-04T00:55:08.360Z,1.25
2024-02-04T00:58:11.092Z,1.33
2024-02-04T01:01:14.007Z,1.50
2024-02-04T01:04:17.125Z,1.36
2024-02-04T01:07:19.801Z,1.48
2024-02-04T01:10:22.688Z,1.55
2024-02-04T01:13:27.956Z,1.67
2024-02-04T01:16:31.036Z,1.77
2024-02-04T01:19:33.620Z,1.83
2024-02-04T01:22:36.806Z,2.03
2024-02-04T01:25:42.757Z,2.01
2024-02-04T01:28:46.491Z,2.05
2024-02-04T01:31:49.035Z,2.13
2024-02-04T01:34:51.791Z,2.23
2024-02-04T01:37:54.900Z,2.35
2024-02-04T01:40:59.012Z,2.29
2024-02-04T01:44:01.685Z,2.23
2024-02-04T01:47:04.842Z,2.11
2024-02-04T01:50:08.101Z,1.79
2024-02-04T01:53:12.037Z,1.66
2024-02-04T01:56:14.762Z,1.41
2024-02-04T01:59:18.609Z,1.46
2024-02-04T02:02:21.937Z,1.39
2024-02-04T02:05:24.519Z,1.32
2024-02-04T02:08:27.267Z,1.37
2024-02-04T02:11:42.939Z,1.35
2024-02-04T02:15:02.435Z,1.33
2024-02-04T02:18:21.180Z,1.15
2024-02-04T02:21:53.776Z,1.16
2024-02-04T02:24:58.902Z,1.03
2024-02-04T02:28:01.790Z,0.85
2024-02-04T02:31:07.453Z,0.78
2024-02-04T02:34:11.649Z,0.81
2024-02-04T02:37:28.715Z,0.85
2024-02-04T02:40:40.649Z,0.83
2024-02-04T02:43:45.855Z,0.86
2024-02-04T02:46:48.901Z,0.73
2024-02-04T02:49:55.966Z,0.79
2024-02-04T02:52:58.898Z,0.76
2024-02-04T02:56:01.567Z,0.89
2024-02-04T02:59:05.006Z,0.82
2024-02-04T03:02:07.857Z,0.82
2024-02-04T03:05:10.995Z,0.76
2024-02-04T03:08:13.567Z,0.69
2024-02-04T03:11:16.222Z,0.69
2024-02-04T03:14:19.492Z,0.62
2024-02-04T03:17:23.624Z,0.57
2024-02-04T03:20:27.931Z,0.42
2024-02-04T03:23:30.522Z,0.47
2024-02-04T03:26:33.492Z,0.55
2024-02-04T03:29:36.117Z,0.68
2024-02-04T03:32:38.920Z,0.82
2024-02-04T03:35:41.676Z,0.81
2024-02-04T03:38:44.391Z,0.76
2024-02-04T03:41:47.048Z,0.91
2024-02-04T03:44:49.566Z,1.04
2024-02-04T03:47:52.408Z,1.24
2024-02-04T03:50:55.109Z,1.22
2024-02-04T03:53:57.818Z,1.08
2024-02-04T03:57:01.497Z,0.91
2024-02-04T04:00:06.091Z,0.94
2024-02-04T04:03:14.352Z,0.97
2024-02-04T04:06:17.325Z,0.88
2024-02-04T04:09:21.468Z,0.96
2024-02-04T04:12:24.219Z,1.04
2024-02-04T04:15:27.989Z,1.10
2024-02-04T04:18:30.802Z,1.15
2024-02-04T04:21:33.527Z,1.07
2024-02-04T04:24:36.335Z,1.20
2024-02-04T04:27:39.003Z,1.24
2024-02-04T04:30:41.673Z,1.44
2024-02-04T04:33:44.807Z,1.66
2024-02-04T04:36:48.042Z,1.48
2024-02-04T04:39:50.829Z,1.36
2024-02-04T04:42:53.557Z,1.15
2024-02-04T04:45:56.349Z,1.16
2024-02-04T04:48:59.981Z,1.11
2024-02-04T04:52:02.798Z,1.11
2024-02-04T04:55:09.549Z,1.04
2024-02-04T04:58:12.330Z,1.04
2024-02-04T05:01:15.769Z,0.98
2024-02-04T05:04:20.147Z,0.99
2024-02-04T05:07:23.944Z,0.94
2024-02-04T05:10:26.835Z,0.97
2024-02-04T05:13:29.828Z,1.03
2024-02-04T05:16:33.343Z,1.01
2024-02-04T05:19:40.574Z,0.99
2024-02-04T05:22:44.550Z,0.99
2024-02-04T05:25:47.154Z,1.06
2024-02-04T05:28:50.808Z,1.00
2024-02-04T05:31:53.712Z,0.90
2024-02-04T05:34:56.523Z,0.87
2024-02-04T05:37:59.222Z,0.71
2024-02-04T05:41:01.879Z,0.80
2024-02-04T05:44:04.693Z,0.86
2024-02-04T05:47:07.452Z,0.89
2024-02-04T05:50:10.659Z,0.82
2024-02-04T05:53:13.600Z,0.84
2024-02-04T05:56:17.463Z,0.68
2024-02-04T05:59:21.403Z,0.58
2024-02-04T06:02:28.416Z,0.67
2024-02-04T06:05:31.117Z,0.67
2024-02-04T06:08:33.749Z,0.73
2024-02-04T06:11:37.471Z,1.00
2024-02-04T06:14:41.629Z,1.12
2024-02-04T06:17:45.036Z,1.22
2024-02-04T06:20:47.557Z,1.32
2024-02-04T06:23:52.039Z,1.41
2024-02-04T06:26:54.597Z,1.36
2024-02-04T06:29:57.255Z,1.43
2024-02-04T06:33:00.350Z,1.37
2024-02-04T06:36:03.372Z,1.10
2024-02-04T06:39:09.966Z,0.97
2024-02-04T06:42:12.729Z,1.01
2024-02-04T06:45:15.535Z,1.13
2024-02-04T06:48:21.322Z,1.25
2024-02-04T06:51:24.117Z,1.44
2024-02-04T06:54:26.859Z,1.56
2024-02-04T06:57:29.473Z,1.74
2024-02-04T07:00:32.126Z,1.98
2024-02-04T07:03:35.234Z,2.20
2024-02-04T07:06:38.156Z,2.30
2024-02-04T07:09:40.904Z,2.49
2024-02-04T07:12:44.101Z,2.67
2024-02-04T07:15:46.992Z,2.77
2024-02-04T07:18:50.040Z,2.91
2024-02-04T07:21:53.081Z,3.13
2024-02-04T07:24:56.104Z,3.51
2024-02-04T07:28:00.010Z,3.74
2024-02-04T07:31:03.143Z,4.32
2024-02-04T07:34:08.506Z,4.80
2024-02-04T07:37:11.438Z,5.27
2024-02-04T07:40:14.268Z,5.71
2024-02-04T07:43:17.256Z,6.11
2024-02-04T07:46:20.664Z,6.39
2024-02-04T07:49:23.798Z,6.59
2024-02-04T07:52:26.640Z,6.75
2024-02-04T07:55:29.323Z,6.86
2024-02-04T07:58:31.885Z,6.97
2024-02-04T08:01:34.467Z,6.24
2024-02-04T08:04:41.376Z,5.98
2024-02-04T08:07:44.293Z,6.10
2024-02-04T08:10:47.242Z,5.67
2024-02-04T08:13:49.865Z,5.91
2024-02-04T08:16:52.400Z,6.12
2024-02-04T08:19:55.150Z,6.06
2024-02-04T08:22:57.812Z,6.19
2024-02-04T08:26:00.990Z,6.27
2024-02-04T08:29:06.384Z,6.47
2024-02-04T08:32:09.352Z,6.65
2024-02-04T08:35:13.168Z,6.82
2024-02-04T08:38:17.710Z,7.02
2024-02-04T08:41:20.676Z,7.16
2024-02-04T08:44:32.238Z,7.30
2024-02-04T08:47:42.094Z,7.43
2024-02-04T08:50:44.634Z,7.55
2024-02-04T08:53:47.189Z,7.72
2024-02-04T08:56:50.237Z,7.94
2024-02-04T08:59:54.491Z,8.14
2024-02-04T09:02:58.619Z,8.32
2024-02-04T09:06:01.428Z,8.52
2024-02-04T09:09:04.257Z,8.64
2024-02-04T09:12:07.096Z,8.62
2024-02-04T09:15:09.937Z,8.70
2024-02-04T09:18:12.711Z,8.73
2024-02-04T09:21:15.551Z,8.78
2024-02-04T09:24:18.587Z,8.65
2024-02-04T09:27:21.384Z,8.75
2024-02-04T09:30:24.727Z,8.95
2024-02-04T09:33:27.587Z,9.02
2024-02-04T09:36:31.758Z,9.21
2024-02-04T09:39:35.109Z,9.42
2024-02-04T09:42:38.378Z,9.59
2024-02-04T09:45:43.062Z,9.88
2024-02-04T09:48:50.431Z,10.28
2024-02-04T09:51:56.241Z,10.50
2024-02-04T09:55:05.194Z,10.68
2024-02-04T09:58:08.293Z,10.78
2024-02-04T10:01:12.788Z,10.91
2024-02-04T10:04:16.319Z,11.00
2024-02-04T10:07:22.281Z,11.08
2024-02-04T10:10:26.103Z,10.94
2024-02-04T10:13:49.301Z,11.25
2024-02-04T10:16:52.457Z,11.19
2024-02-04T10:19:55.287Z,11.33
2024-02-04T10:22:58.581Z,11.36
2024-02-04T10:26:06.473Z,11.41
2024-02-04T10:29:10.447Z,11.53
2024-02-04T10:32:20.501Z,11.49
2024-02-04T10:35:25.609Z,11.60
2024-02-04T10:38:33.828Z,11.89
2024-02-04T10:41:44.818Z,12.12
2024-02-04T10:44:50.467Z,12.45
2024-02-04T10:47:58.807Z,12.65
2024-02-04T10:51:01.881Z,12.46
2024-02-04T10:54:07.110Z,12.59
2024-02-04T10:57:20.104Z,12.65
2024-02-04T11:00:25.641Z,12.35
2024-02-04T11:03:30.627Z,12.24
2024-02-04T11:06:34.258Z,12.10
2024-02-04T11:09:38.073Z,11.96
2024-02-04T11:12:42.878Z,11.86
2024-02-04T11:15:46.889Z,11.87
2024-02-04T11:19:24.232Z,12.01
2024-02-04T11:22:33.537Z,12.28
2024-02-04T11:25:59.807Z,12.47
2024-02-04T11:29:02.930Z,12.40
2024-02-04T11:32:07.395Z,12.48
2024-02-04T11:35:12.857Z,12.38
2024-02-04T11:38:19.785Z,12.52
2024-02-04T11:41:28.756Z,12.58
2024-02-04T11:44:31.457Z,12.63
2024-02-04T11:47:35.273Z,12.68
2024-02-04T11:50:40.657Z,12.70
2024-02-04T11:53:43.683Z,12.66
2024-02-04T11:56:47.853Z,12.75
2024-02-04T11:59:51.674Z,12.81
2024-02-04T12:03:04.220Z,12.76
2024-02-04T12:06:07.354Z,12.83
2024-02-04T12:09:11.092Z,13.05
2024-02-04T12:12:13.952Z,13.04
2024-02-04T12:15:18.427Z,12.97
2024-02-04T12:18:22.334Z,13.08
2024-02-04T12:21:26.837Z,12.93
2024-02-04T12:24:29.627Z,13.03
2024-02-04T12:27:32.385Z,13.05
2024-02-04T12:30:35.255Z,13.05
2024-02-04T12:33:40.419Z,12.89
2024-02-04T12:36:46.248Z,12.72
2024-02-04T12:39:50.511Z,12.78
2024-02-04T12:43:07.108Z,12.74
2024-02-04T12:46:10.162Z,12.81
2024-02-04T12:49:22.215Z,12.69
2024-02-04T12:52:24.908Z,12.78
2024-02-04T12:55:34.547Z,12.86
2024-02-04T12:58:43.933Z,12.87
2024-02-04T13:01:46.729Z,12.89
2024-02-04T13:04:50.705Z,12.90
2024-02-04T13:08:00.582Z,12.80
2024-02-04T13:11:03.677Z,12.83
2024-02-04T13:14:07.774Z,12.86
2024-02-04T13:17:11.096Z,12.92
2024-02-04T13:20:13.707Z,13.01
2024-02-04T13:23:16.593Z,13.04
2024-02-04T13:26:19.279Z,13.08
2024-02-04T13:29:23.136Z,13.03
2024-02-04T13:32:26.064Z,12.93
2024-02-04T13:35:29.055Z,12.87
2024-02-04T13:38:31.852Z,12.82
2024-02-04T13:41:34.553Z,12.71
2024-02-04T13:44:37.337Z,12.65
2024-02-04T13:47:40.215Z,12.59
2024-02-04T13:50:45.935Z,12.72
2024-02-04T13:53:48.617Z,12.68
2024-02-04T13:56:51.439Z,12.61
2024-02-04T13:59:54.429Z,12.62
2024-02-04T14:02:56.985Z,12.56
2024-02-04T14:06:01.723Z,12.42
2024-02-04T14:09:04.845Z,12.33
2024-02-04T14:12:08.488Z,12.18
2024-02-04T14:15:11.232Z,12.18
2024-02-04T14:18:18.985Z,12.17
2024-02-04T14:21:22.803Z,12.06
2024-02-04T14:24:25.757Z,11.91
2024-02-04T14:27:30.130Z,11.83
2024-02-04T14:30:33.337Z,11.81
2024-02-04T14:33:36.081Z,11.71
2024-02-04T14:36:40.319Z,11.68
2024-02-04T14:39:43.450Z,11.66
2024-02-04T14:42:46.345Z,11.68
2024-02-04T14:45:49.565Z,11.66
2024-02-04T14:48:53.674Z,11.58
2024-02-04T14:51:56.457Z,11.54
2024-02-04T14:55:00.593Z,11.49
2024-02-04T14:58:03.352Z,11.42
2024-02-04T15:01:06.517Z,11.28
2024-02-04T15:04:10.501Z,11.21
2024-02-04T15:07:13.824Z,11.12
2024-02-04T15:10:16.929Z,11.09
2024-02-04T15:13:19.974Z,11.06
2024-02-04T15:16:23.421Z,10.92
2024-02-04T15:19:27.800Z,10.87
2024-02-04T15:22:31.781Z,10.71
2024-02-04T15:25:35.969Z,10.53
2024-02-04T15:28:39.834Z,10.27
2024-02-04T15:31:42.990Z,10.06
2024-02-04T15:34:46.456Z,9.81
2024-02-04T15:37:49.251Z,9.68
2024-02-04T15:40:52.042Z,9.70
2024-02-04T15:43:54.873Z,9.79
2024-02-04T15:46:59.110Z,9.69
2024-02-04T15:50:02.339Z,9.60
2024-02-04T15:53:07.019Z,9.61
2024-02-04T15:56:12.253Z,9.61
2024-02-04T15:59:23.967Z,9.48
2024-02-04T16:02:27.661Z,9.35
2024-02-04T16:05:33.616Z,9.33
2024-02-04T16:08:39.934Z,9.29
2024-02-04T16:11:55.357Z,9.18
2024-02-04T16:14:59.981Z,9.09
2024-02-04T16:18:03.225Z,8.97
2024-02-04T16:21:06.246Z,8.97
2024-02-04T16:24:09.159Z,8.83
2024-02-04T16:27:12.961Z,8.77
2024-02-04T16:30:19.304Z,8.67
2024-02-04T16:33:23.269Z,8.43
2024-02-04T16:36:25.880Z,8.39
2024-02-04T16:39:32.107Z,8.19
2024-02-04T16:42:36.877Z,7.96
2024-02-04T16:45:40.726Z,7.80
2024-02-04T16:48:44.764Z,7.73
2024-02-04T16:51:50.200Z,7.81
2024-02-04T16:54:54.700Z,7.75
2024-02-04T16:57:58.124Z,7.64
2024-02-04T17:01:01.117Z,7.55
2024-02-04T17:04:07.206Z,7.34
2024-02-04T17:07:11.506Z,7.25
2024-02-04T17:10:15.931Z,7.21
2024-02-04T17:13:19.536Z,7.23
2024-02-04T17:16:30.997Z,7.17
2024-02-04T17:19:49.702Z,7.10
2024-02-04T17:23:00.066Z,6.98
2024-02-04T17:26:05.704Z,6.87
2024-02-04T17:29:10.124Z,6.81
2024-02-04T17:32:14.192Z,6.69
2024-02-04T17:35:20.805Z,6.71
2024-02-04T17:38:23.699Z,6.77
2024-02-04T17:41:27.654Z,6.74
2024-02-04T17:44:30.462Z,6.58
2024-02-04T17:47:33.572Z,6.61
2024-02-04T17:50:36.726Z,6.56
2024-02-04T17:53:40.445Z,6.52
2024-02-04T17:56:44.768Z,6.45
2024-02-04T17:59:48.440Z,6.33
2024-02-04T18:02:51.088Z,6.35
2024-02-04T18:05:55.525Z,6.15
2024-02-04T18:08:58.686Z,6.14
2024-02-04T18:12:01.774Z,6.05
2024-02-04T18:15:06.722Z,6.04
2024-02-04T18:18:10.523Z,6.09
2024-02-04T18:21:24.179Z,6.12
2024-02-04T18:24:27.399Z,6.05
2024-02-04T18:27:30.656Z,6.02
2024-02-04T18:30:34.868Z,5.98
2024-02-04T18:33:40.282Z,5.89
2024-02-04T18:36:43.594Z,5.84
2024-02-04T18:39:48.753Z,5.81
2024-02-04T18:42:51.441Z,5.77
2024-02-04T18:45:56.677Z,5.77
2024-02-04T18:49:00.376Z,5.81
2024-02-04T18:52:04.206Z,5.76
2024-02-04T18:55:08.590Z,5.71
2024-02-04T18:58:11.909Z,5.71
2024-02-04T19:01:19.756Z,5.69
2024-02-04T19:04:28.151Z,5.61
2024-02-04T19:07:31.739Z,5.63
2024-02-04T19:10:34.918Z,5.57
2024-02-04T19:13:38.711Z,5.52
2024-02-04T19:16:41.739Z,5.42
2024-02-04T19:19:45.711Z,5.36
2024-02-04T19:22:49.492Z,5.25
2024-02-04T19:25:52.400Z,5.26
2024-02-04T19:28:55.084Z,5.31
2024-02-04T19:31:59.195Z,5.32
2024-02-04T19:35:01.891Z,5.48
2024-02-04T19:38:05.274Z,5.55
2024-02-04T19:41:08.567Z,5.80
2024-02-04T19:44:11.369Z,7.04
2024-02-04T19:47:14.088Z,7.85
2024-02-04T19:50:16.912Z,8.11
2024-02-04T19:53:20.532Z,8.33
2024-02-04T19:56:23.484Z,8.46
2024-02-04T19:59:27.197Z,8.48
2024-02-04T20:02:30.091Z,8.48
2024-02-04T20:05:33.094Z,8.55
2024-02-04T20:08:36.575Z,8.50
2024-02-04T20:11:39.542Z,8.57
2024-02-04T20:14:42.161Z,8.75
2024-02-04T20:17:47.656Z,8.76
2024-02-04T20:20:50.415Z,8.69
2024-02-04T20:23:53.140Z,8.72
2024-02-04T20:26:56.020Z,8.72
2024-02-04T20:29:59.744Z,8.74
2024-02-04T20:33:02.605Z,8.68
2024-02-04T20:36:05.485Z,8.73
2024-02-04T20:39:08.969Z,8.76
2024-02-04T20:42:14.849Z,8.65
2024-02-04T20:45:17.791Z,8.71
2024-02-04T20:48:21.220Z,8.59
2024-02-04T20:51:26.164Z,8.51
2024-02-04T20:54:29.007Z,8.39
2024-02-04T20:57:31.779Z,8.39
2024-02-04T21:00:34.872Z,8.29
2024-02-04T21:03:38.216Z,8.20
2024-02-04T21:06:41.094Z,8.28
2024-02-04T21:09:44.011Z,8.27
2024-02-04T21:12:47.385Z,8.30
2024-02-04T21:15:50.212Z,8.26
2024-02-04T21:18:53.348Z,8.20
2024-02-04T21:21:57.251Z,8.12
2024-02-04T21:25:03.804Z,8.10
2024-02-04T21:28:07.725Z,7.98
2024-02-04T21:31:11.041Z,7.88
2024-02-04T21:34:13.819Z,7.93
2024-02-04T21:37:17.719Z,7.90
2024-02-04T21:40:23.503Z,7.93
2024-02-04T21:43:26.200Z,8.02
2024-02-04T21:46:28.741Z,8.00
2024-02-04T21:49:31.398Z,8.07
2024-02-04T21:52:34.071Z,8.04
2024-02-04T21:55:36.614Z,8.03
2024-02-04T21:58:39.230Z,8.02
2024-02-04T22:01:42.358Z,7.94
2024-02-04T22:04:45.032Z,7.85
2024-02-04T22:07:47.686Z,7.89
2024-02-04T22:10:50.461Z,7.75
2024-02-04T22:13:53.347Z,7.67
2024-02-04T22:16:57.105Z,7.36
2024-02-04T22:19:59.787Z,7.14
2024-02-04T22:23:03.008Z,6.90
2024-02-04T22:26:05.590Z,6.68
2024-02-04T22:29:08.209Z,6.66
2024-02-04T22:32:10.738Z,6.52
2024-02-04T22:35:13.755Z,6.39
2024-02-04T22:38:16.594Z,6.27
2024-02-04T22:41:19.273Z,6.19
2024-02-04T22:44:21.962Z,6.14
2024-02-04T22:47:26.146Z,6.11
2024-02-04T22:50:28.712Z,5.96
2024-02-04T22:53:31.233Z,6.38
2024-02-04T22:56:34.082Z,6.42
2024-02-04T22:59:36.765Z,6.40
2024-02-04T23:02:39.915Z,6.40
2024-02-04T23:05:44.132Z,6.25
2024-02-04T23:08:46.704Z,6.19
2024-02-04T23:11:49.554Z,6.13
2024-02-04T23:14:52.118Z,5.90
2024-02-04T23:17:55.426Z,5.85
2024-02-04T23:20:58.556Z,5.72
2024-02-04T23:24:01.603Z,5.70
2024-02-04T23:27:05.177Z,5.63
2024-02-04T23:30:09.401Z,5.54
2024-02-04T23:33:13.263Z,5.50
2024-02-04T23:36:15.892Z,5.46
2024-02-04T23:39:20.217Z,5.44
2024-02-04T23:42:23.765Z,5.35
2024-02-04T23:45:27.029Z,5.27
2024-02-04T23:48:29.946Z,5.17
2024-02-04T23:51:32.788Z,5.03
2024-02-04T23:54:35.553Z,5.01
2024-02-04T23:57:41.719Z,4.98
